Portada
METAR-TAF:

METAR-TAF

Aeroports :

Chapecó, Santa Catarina, Brasil

latitud: 27-08-02S, longitud: 052-39-43W, altitud: 654 m

Observació

L'informe es va fer fa 39 minuts, a les 02:00 UTC
Vent 15 kt del Sud-Est
Temperatura 16°C
Humitat 100%
Pressió 1012 hPa
Visibilitat: 7000 m
Núvols disperses a una alçada de 500 ft
Cel ennuvolat a una alçada de 2000 ft
Escasses núvols a una alçada de 3000 ft, Cumulonimbus.
Cel ennuvolat a una alçada de 8000 ft
tempesta, pluja,

METAR: SBCH 180200Z 13015KT 7000 -TSRA SCT005 BKN020 FEW030CB BKN080 16/16 Q1012

Hora: 23:39 (02:39 UTC)


TAF: manca

Observacions i pronòstics meteorològics de més de 4000 aeroports (METAR i TAF).

Les estacions disponibles són els punts grocs i vermells al mapa.

Posi el ratolí al punt desitjat per veure el nom de l'estació.

Feu clic per veure les observacions i els pronòstics meteorològics.

Per canviar el mapa: feu clic els botons verds amb una creu de color negre per apropar; al botó verd amb un guió per allunyar la imatge; o en les fletxes verdes per a mapes adjacents.


METAR-TAF: